Time;durP1;ratioP1;P1;durP2;ratioP2;P2;SDS_P1;SDS_P2;PMS_P1;PMS_P2;Temp;Humidity;BMP_temperature;BMP_pressure;BME280_temperature;BME280_humidity;BME280_pressure;Samples;Min_cycle;Max_cycle;Signal;HPM_P1;HPM_P2
2021/03/08 00:00:34;;;;;;;10.97;6.70;;;4.80;91.30;12.30;99520.00;;;;5051924;28;20554;-67
2021/03/08 00:03:00;;;;;;;10.60;7.60;;;4.80;91.30;12.50;99525.00;;;;5068378;28;20244;-66
2021/03/08 00:05:26;;;;;;;10.40;7.43;;;4.80;91.20;12.20;99522.00;;;;5067951;28;20228;-67
2021/03/08 00:07:52;;;;;;;9.23;7.93;;;4.80;91.30;12.40;99513.00;;;;5068636;28;20435;-66
2021/03/08 00:10:18;;;;;;;10.13;7.33;;;4.80;91.60;12.10;99527.00;;;;5050633;28;20680;-66
2021/03/08 00:12:45;;;;;;;10.75;8.02;;;4.80;91.20;12.00;99523.00;;;;5068652;28;20402;-66
2021/03/08 00:15:12;;;;;;;9.73;7.18;;;4.80;91.30;12.40;99533.00;;;;5034769;28;20208;-66
2021/03/08 00:17:38;;;;;;;9.70;7.40;;;4.80;91.30;12.10;99532.00;;;;5051197;28;20189;-67
2021/03/08 00:20:12;;;;;;;9.90;7.70;;;4.80;91.30;12.30;99520.00;;;;5069785;28;20663;-67
2021/03/08 00:22:38;;;;;;;9.10;6.97;;;4.80;91.30;12.40;99520.00;;;;5052105;28;20556;-66
2021/03/08 00:25:09;;;;;;;9.00;6.97;;;4.80;91.20;12.10;99508.00;;;;5067552;28;20201;-66
2021/03/08 00:27:35;;;;;;;9.88;7.10;;;4.80;91.20;12.00;99517.00;;;;5036254;28;20678;-66
2021/03/08 00:30:02;;;;;;;10.50;7.93;;;4.80;91.20;12.10;99524.00;;;;5067480;28;20209;-66
2021/03/08 00:32:28;;;;;;;11.13;8.18;;;4.80;91.30;12.20;99518.00;;;;5051022;28;20770;-66
2021/03/08 00:34:54;;;;;;;12.17;8.17;;;4.80;91.30;12.50;99491.00;;;;5068318;28;20370;-66
2021/03/08 00:37:19;;;;;;;9.47;7.60;;;4.80;91.20;12.30;99522.00;;;;5051302;28;20261;-66
2021/03/08 00:39:45;;;;;;;10.87;7.63;;;4.80;91.20;12.40;99524.00;;;;5067428;28;20205;-67
2021/03/08 00:42:11;;;;;;;10.13;6.80;;;4.80;91.20;12.10;99521.00;;;;5069399;28;20224;-67
2021/03/08 00:44:36;;;;;;;8.90;7.10;;;4.80;91.20;12.10;99514.00;;;;5068642;28;20186;-66
2021/03/08 00:47:02;;;;;;;10.87;8.03;;;4.80;91.20;12.50;99526.00;;;;5067899;28;20184;-66
2021/03/08 00:49:28;;;;;;;10.27;7.67;;;4.80;91.20;12.40;99525.00;;;;5067774;28;20204;-65
2021/03/08 00:51:54;;;;;;;9.80;7.23;;;4.80;91.20;12.60;99521.00;;;;5068152;28;20208;-67
2021/03/08 00:54:19;;;;;;;11.07;7.93;;;4.80;91.20;12.50;99518.00;;;;5067800;28;20269;-65
2021/03/08 00:56:45;;;;;;;9.40;6.93;;;4.80;91.20;12.50;99512.00;;;;5050947;28;20238;-65
2021/03/08 00:59:11;;;;;;;10.10;8.10;;;4.80;91.20;12.40;99520.00;;;;5067445;28;20182;-66
2021/03/08 01:01:36;;;;;;;10.70;7.83;;;4.80;91.60;12.30;99527.00;;;;5083151;28;20252;-65
2021/03/08 01:04:02;;;;;;;13.13;8.70;;;4.80;91.60;12.30;99526.00;;;;5068072;28;20182;-66
2021/03/08 01:06:28;;;;;;;9.33;6.97;;;4.70;91.20;12.50;99519.00;;;;5068454;28;20197;-66
2021/03/08 01:08:54;;;;;;;9.93;7.93;;;4.80;91.20;12.00;99513.00;;;;5068249;28;20414;-66
2021/03/08 01:11:20;;;;;;;12.57;7.90;;;4.70;91.10;12.30;99520.00;;;;5054313;28;20208;-66
2021/03/08 01:13:45;;;;;;;10.93;7.70;;;4.80;91.20;12.40;99513.00;;;;5070740;28;20406;-66
2021/03/08 01:16:11;;;;;;;12.47;8.80;;;4.70;91.10;12.40;99510.00;;;;5072601;28;20744;-66
2021/03/08 01:18:37;;;;;;;8.73;6.93;;;4.70;91.20;12.10;99506.00;;;;5073095;28;20173;-66
2021/03/08 01:21:03;;;;;;;10.83;8.30;;;4.70;91.20;12.30;99504.00;;;;5071768;28;20229;-65
2021/03/08 01:23:28;;;;;;;11.15;8.27;;;4.70;91.20;12.20;99514.00;;;;5054963;28;20211;-66
2021/03/08 01:25:54;;;;;;;10.17;7.60;;;4.70;91.10;12.20;99506.00;;;;5087978;28;20234;-66
2021/03/08 01:28:20;;;;;;;11.00;8.83;;;4.70;91.20;11.90;99480.00;;;;5071904;28;20216;-66
2021/03/08 01:30:46;;;;;;;11.50;7.80;;;4.70;91.10;11.90;99503.00;;;;5070934;28;20698;-65
2021/03/08 01:33:12;;;;;;;11.77;7.50;;;4.70;91.10;12.10;99501.00;;;;5071559;28;20236;-65
2021/03/08 01:35:38;;;;;;;9.20;7.73;;;4.70;91.50;12.00;99493.00;;;;5036918;28;20901;-65
2021/03/08 01:38:04;;;;;;;9.65;7.50;;;4.70;91.10;12.20;99495.00;;;;5054659;28;20421;-66
2021/03/08 01:40:31;;;;;;;10.17;7.33;;;4.70;91.10;12.10;99492.00;;;;5070293;28;20213;-65
2021/03/08 01:42:57;;;;;;;10.95;7.40;;;4.70;91.10;12.10;99472.00;;;;5037415;28;20220;-65
2021/03/08 01:45:23;;;;;;;11.13;7.70;;;4.70;91.10;12.20;99498.00;;;;5036955;28;20203;-66
2021/03/08 01:47:49;;;;;;;10.87;6.93;;;4.70;91.20;12.20;99487.00;;;;5054083;28;20204;-66
2021/03/08 01:50:40;;;;;;;10.30;7.78;;;4.70;91.20;12.20;99486.00;;;;5053875;28;20395;-65
2021/03/08 01:53:07;;;;;;;9.23;7.32;;;4.70;91.20;12.20;99488.00;;;;5070974;28;20181;-66
2021/03/08 01:55:33;;;;;;;10.32;6.75;;;4.70;91.10;12.30;99501.00;;;;5069740;28;20371;-66
2021/03/08 01:57:59;;;;;;;11.10;8.00;;;4.70;91.10;12.20;99492.00;;;;5054436;28;20798;-65
2021/03/08 02:00:26;;;;;;;10.45;7.47;;;4.60;91.10;12.10;99489.00;;;;5070364;28;20456;-68
2021/03/08 02:02:52;;;;;;;10.68;8.18;;;4.70;91.10;12.20;99483.00;;;;5070248;28;20671;-66
2021/03/08 02:05:21;;;;;;;12.07;8.07;;;4.70;91.20;12.20;99494.00;;;;5054058;28;20288;-66
2021/03/08 02:07:47;;;;;;;9.55;7.70;;;4.70;91.20;12.20;99501.00;;;;5071422;28;20181;-65
2021/03/08 02:10:17;;;;;;;11.33;7.83;;;4.60;91.10;12.10;99499.00;;;;5070119;28;20674;-65
2021/03/08 02:12:51;;;;;;;9.88;7.43;;;4.60;91.10;12.10;99499.00;;;;5037846;28;20193;-66
2021/03/08 02:15:41;;;;;;;10.70;8.13;;;4.70;91.20;12.00;99509.00;;;;5086801;28;20250;-65
2021/03/08 02:18:27;;;;;;;12.68;7.70;;;4.60;91.10;11.90;99499.00;;;;5071307;28;20185;-65
2021/03/08 02:21:39;;;;;;;10.52;7.53;;;4.70;91.10;11.90;99519.00;;;;5070337;28;20555;-65
2021/03/08 02:24:46;;;;;;;9.93;7.38;;;4.60;91.10;12.00;99514.00;;;;5071061;28;20212;-66
2021/03/08 02:27:58;;;;;;;9.73;7.57;;;4.70;91.20;12.00;99515.00;;;;5070986;28;20563;-66
2021/03/08 02:30:41;;;;;;;10.75;7.80;;;4.60;91.10;11.90;99514.00;;;;5056299;28;20208;-65
2021/03/08 02:33:08;;;;;;;10.35;8.43;;;4.60;91.10;12.00;99510.00;;;;5069348;28;20325;-65
2021/03/08 02:35:44;;;;;;;9.52;6.85;;;4.60;91.10;12.00;99510.00;;;;5053534;28;20201;-65
2021/03/08 02:38:15;;;;;;;11.65;7.60;;;4.60;91.10;12.00;99511.00;;;;5052453;28;20184;-65
2021/03/08 02:40:44;;;;;;;11.20;7.50;;;4.60;91.10;11.70;99508.00;;;;5069910;28;20259;-65
2021/03/08 02:43:32;;;;;;;10.25;6.88;;;4.60;91.10;12.10;99510.00;;;;5052849;28;20216;-66
2021/03/08 02:46:04;;;;;;;12.50;8.40;;;4.60;91.10;11.90;99480.00;;;;5053700;28;20205;-65
2021/03/08 02:48:30;;;;;;;13.88;8.20;;;4.60;91.10;12.00;99514.00;;;;5053995;28;20583;-66
2021/03/08 02:50:56;;;;;;;9.80;7.20;;;4.60;91.10;12.10;99501.00;;;;5019633;28;20197;-65
2021/03/08 02:53:22;;;;;;;8.90;7.30;;;4.60;91.10;12.00;99506.00;;;;5052906;28;20190;-67
2021/03/08 02:56:04;;;;;;;9.95;7.60;;;4.60;91.10;12.00;99510.00;;;;5052999;28;20212;-66
2021/03/08 02:58:32;;;;;;;11.80;9.25;;;4.60;91.10;11.80;99496.00;;;;5053561;28;20189;-66
2021/03/08 03:00:57;;;;;;;11.43;8.02;;;4.60;91.10;11.90;99506.00;;;;5036538;28;20228;-65
2021/03/08 03:03:23;;;;;;;10.13;7.27;;;4.60;91.10;11.80;99507.00;;;;5052564;28;20651;-65
2021/03/08 03:05:49;;;;;;;11.13;7.90;;;4.60;91.10;12.00;99510.00;;;;5052322;28;20197;-66
2021/03/08 03:08:14;;;;;;;10.33;7.33;;;4.60;91.10;11.80;99503.00;;;;5052097;28;20189;-66
2021/03/08 03:10:40;;;;;;;11.97;7.97;;;4.60;91.10;11.80;99503.00;;;;5052702;28;20782;-65
2021/03/08 03:13:06;;;;;;;12.57;8.43;;;4.60;91.10;11.80;99486.00;;;;5051264;28;20254;-66
2021/03/08 03:15:37;;;;;;;12.83;9.47;;;4.60;91.10;11.90;99508.00;;;;5019607;28;20301;-66
2021/03/08 03:18:05;;;;;;;11.30;8.10;;;4.60;91.10;11.90;99519.00;;;;5051770;28;20955;-66
2021/03/08 03:20:30;;;;;;;10.90;8.10;;;4.50;91.00;12.00;99514.00;;;;5052072;28;20205;-66
2021/03/08 03:22:56;;;;;;;11.13;7.60;;;4.60;91.10;12.00;99523.00;;;;5052101;28;20307;-66
2021/03/08 03:25:24;;;;;;;10.80;8.03;;;4.50;91.00;11.90;99518.00;;;;5068583;28;20205;-65
2021/03/08 03:27:50;;;;;;;11.35;8.00;;;4.60;91.10;11.90;99516.00;;;;5051878;28;20302;-66
2021/03/08 03:30:21;;;;;;;9.43;7.25;;;4.60;91.10;11.80;99515.00;;;;5035845;28;20205;-65
2021/03/08 03:32:47;;;;;;;11.80;8.18;;;4.60;91.10;12.00;99516.00;;;;5068827;28;20320;-65
2021/03/08 03:35:13;;;;;;;12.30;8.80;;;4.60;91.10;11.90;99511.00;;;;5052329;28;20289;-65
2021/03/08 03:37:40;;;;;;;12.38;7.63;;;4.50;91.00;11.70;99509.00;;;;5035297;28;20177;-66
2021/03/08 03:40:07;;;;;;;11.13;8.70;;;4.50;91.00;11.70;99515.00;;;;5052217;28;20205;-65
2021/03/08 03:42:33;;;;;;;12.25;8.60;;;4.50;91.00;12.10;99521.00;;;;5067277;28;20324;-65
2021/03/08 03:44:59;;;;;;;11.07;7.82;;;4.50;91.00;12.00;99519.00;;;;5068653;28;20204;-66
2021/03/08 03:47:25;;;;;;;11.27;8.37;;;4.50;91.00;11.80;99519.00;;;;5050775;28;20631;-66
2021/03/08 03:49:51;;;;;;;13.17;9.13;;;4.50;91.00;11.80;99538.00;;;;5069638;28;20201;-65
2021/03/08 03:52:16;;;;;;;11.87;8.60;;;4.50;91.00;12.00;99521.00;;;;5068471;28;20185;-66
2021/03/08 03:54:42;;;;;;;11.40;8.70;;;4.50;91.00;12.00;99520.00;;;;5068381;28;20192;-65
2021/03/08 03:57:10;;;;;;;11.53;8.93;;;4.50;91.00;12.10;99535.00;;;;5051778;28;20184;-65
2021/03/08 03:59:41;;;;;;;12.43;8.88;;;4.50;91.00;11.80;99536.00;;;;5068448;28;20462;-65
2021/03/08 04:02:12;;;;;;;12.43;9.02;;;4.50;91.00;11.80;99525.00;;;;5067932;28;20760;-65
2021/03/08 04:04:59;;;;;;;11.25;8.70;;;4.50;91.00;12.00;99528.00;;;;5052188;28;20664;-65
2021/03/08 04:07:25;;;;;;;13.73;9.02;;;4.50;91.00;11.80;99534.00;;;;5051990;28;20181;-65
2021/03/08 04:09:52;;;;;;;13.23;8.97;;;4.50;91.00;12.10;99529.00;;;;5051702;28;20282;-66
2021/03/08 04:12:21;;;;;;;11.73;8.93;;;4.50;91.00;12.00;99526.00;;;;5051645;28;20184;-65
2021/03/08 04:14:48;;;;;;;11.20;8.70;;;4.50;91.00;11.90;99533.00;;;;5068180;28;20197;-66
2021/03/08 04:17:14;;;;;;;12.60;9.95;;;4.50;91.00;12.00;99531.00;;;;5050950;28;20185;-66
2021/03/08 04:19:40;;;;;;;11.68;9.27;;;4.50;91.00;11.70;99536.00;;;;5052009;28;20211;-65
2021/03/08 04:22:07;;;;;;;14.45;9.90;;;4.50;91.00;11.90;99528.00;;;;5051273;28;20236;-65
2021/03/08 04:24:33;;;;;;;10.77;9.00;;;4.50;91.00;11.70;99539.00;;;;5051354;28;20234;-65
2021/03/08 04:27:05;;;;;;;12.50;9.67;;;4.50;91.00;11.90;99549.00;;;;5051939;28;20189;-65
2021/03/08 04:29:41;;;;;;;11.38;9.55;;;4.50;91.00;11.90;99551.00;;;;5051890;28;20551;-65
2021/03/08 04:32:08;;;;;;;12.15;9.25;;;4.50;91.00;11.80;99550.00;;;;5052689;28;20746;-65
2021/03/08 04:34:34;;;;;;;12.05;9.02;;;4.50;91.00;11.80;99540.00;;;;5051634;28;20269;-66
2021/03/08 04:36:59;;;;;;;12.95;9.10;;;4.50;91.00;11.80;99550.00;;;;5034707;28;20200;-66
2021/03/08 04:39:31;;;;;;;10.83;8.23;;;4.50;91.00;11.60;99551.00;;;;5051410;28;20181;-66
2021/03/08 04:41:56;;;;;;;14.43;9.27;;;4.50;91.00;11.50;99544.00;;;;5051832;28;20726;-66
2021/03/08 04:44:23;;;;;;;12.80;8.77;;;4.50;91.00;11.80;99540.00;;;;5053633;28;20189;-68
2021/03/08 04:46:49;;;;;;;13.18;9.48;;;4.50;91.00;11.60;99514.00;;;;5055405;28;20272;-66
2021/03/08 04:49:15;;;;;;;13.93;9.77;;;4.40;91.00;11.80;99546.00;;;;5055331;28;20187;-66
2021/03/08 04:51:41;;;;;;;11.90;8.37;;;4.40;91.00;12.00;99552.00;;;;5038082;28;20213;-66
2021/03/08 04:54:06;;;;;;;13.50;9.90;;;4.40;91.30;11.70;99552.00;;;;5054858;28;20181;-68
2021/03/08 04:56:33;;;;;;;10.00;8.73;;;4.40;91.00;11.80;99552.00;;;;5038268;28;20206;-66
2021/03/08 04:59:00;;;;;;;12.18;9.35;;;4.40;91.00;11.70;99550.00;;;;5054102;28;20184;-66
2021/03/08 05:01:27;;;;;;;12.25;9.65;;;4.40;91.00;11.70;99552.00;;;;5055256;28;20201;-68
2021/03/08 05:03:53;;;;;;;13.60;9.88;;;4.40;91.30;11.80;99552.00;;;;5054748;28;20177;-66
2021/03/08 05:06:18;;;;;;;13.97;9.07;;;4.40;91.00;11.70;99555.00;;;;5054857;28;20559;-66
2021/03/08 05:08:44;;;;;;;13.07;9.63;;;4.40;91.00;11.60;99561.00;;;;5071146;28;20188;-66
2021/03/08 05:11:11;;;;;;;11.40;8.03;;;4.40;91.00;11.70;99555.00;;;;5054805;28;20208;-66
2021/03/08 05:13:37;;;;;;;12.20;9.10;;;4.40;91.00;11.80;99524.00;;;;5070428;28;20185;-66
2021/03/08 05:16:02;;;;;;;14.43;9.37;;;4.40;91.00;11.70;99568.00;;;;5038693;28;20683;-66
2021/03/08 05:18:29;;;;;;;12.27;8.83;;;4.40;91.00;11.80;99550.00;;;;5054690;28;20227;-66
2021/03/08 05:20:55;;;;;;;14.10;10.23;;;4.40;91.00;11.50;99550.00;;;;5054338;28;20538;-66
2021/03/08 05:23:20;;;;;;;13.17;9.30;;;4.40;91.00;11.90;99566.00;;;;5054146;28;20291;-67
2021/03/08 05:26:18;;;;;;;12.50;9.33;;;4.40;91.00;11.90;99572.00;;;;5038019;28;20213;-67
2021/03/08 05:28:44;;;;;;;12.02;8.93;;;4.40;91.00;11.80;99566.00;;;;5054116;28;20200;-66
2021/03/08 05:31:10;;;;;;;11.73;9.10;;;4.40;91.00;11.70;99564.00;;;;5054645;28;20204;-66
2021/03/08 05:33:36;;;;;;;15.60;9.90;;;4.40;91.00;11.70;99575.00;;;;5053946;28;20235;-66
2021/03/08 05:36:02;;;;;;;12.10;9.27;;;4.40;91.00;11.60;99584.00;;;;5054406;28;20205;-66
2021/03/08 05:38:29;;;;;;;13.98;9.85;;;4.40;91.00;11.60;99541.00;;;;5037821;28;20312;-66
2021/03/08 05:41:24;;;;;;;14.45;10.68;;;4.40;91.00;11.60;99575.00;;;;5054144;28;20288;-66
2021/03/08 05:43:53;;;;;;;12.75;8.82;;;4.40;91.00;11.60;99584.00;;;;5055941;28;20193;-66
2021/03/08 05:46:22;;;;;;;12.20;9.88;;;4.40;91.00;11.60;99588.00;;;;5054375;28;20444;-66
2021/03/08 05:49:09;;;;;;;12.65;9.68;;;4.40;91.00;11.90;99583.00;;;;5069543;28;20668;-67
2021/03/08 05:52:18;;;;;;;12.68;9.32;;;4.40;91.00;11.50;99591.00;;;;5070757;28;20216;-65
2021/03/08 05:55:14;;;;;;;12.23;8.73;;;4.40;91.00;11.70;99599.00;;;;5070887;28;20239;-65
2021/03/08 05:58:32;;;;;;;12.40;8.73;;;4.40;91.00;11.60;99600.00;;;;5072091;28;20186;-65
2021/03/08 06:01:26;;;;;;;12.57;9.45;;;4.40;91.00;11.60;99606.00;;;;5071353;28;20217;-65
2021/03/08 06:04:28;;;;;;;11.55;9.18;;;4.40;91.00;11.50;99605.00;;;;5038309;28;20697;-65
2021/03/08 06:07:28;;;;;;;12.50;9.70;;;4.40;91.00;11.50;99604.00;;;;5070876;28;20177;-65
2021/03/08 06:09:56;;;;;;;14.10;9.80;;;4.40;91.00;11.40;99607.00;;;;5050054;28;20220;-65
2021/03/08 06:12:27;;;;;;;14.57;9.73;;;4.40;91.00;11.50;99616.00;;;;5053894;28;20185;-65
2021/03/08 06:14:57;;;;;;;13.35;10.05;;;4.40;91.00;11.70;99611.00;;;;5053631;28;20204;-65
2021/03/08 06:17:23;;;;;;;11.70;8.90;;;4.40;91.00;11.40;99621.00;;;;5053751;28;20716;-65
2021/03/08 06:19:49;;;;;;;13.13;10.07;;;4.40;91.00;11.50;99620.00;;;;5036572;28;20463;-65
2021/03/08 06:22:15;;;;;;;12.27;9.40;;;4.40;91.00;11.60;99620.00;;;;5053537;28;20209;-66
2021/03/08 06:24:45;;;;;;;12.65;9.60;;;4.40;91.00;11.80;99616.00;;;;5053003;28;20451;-65
2021/03/08 06:27:12;;;;;;;11.68;9.40;;;4.30;90.90;11.80;99620.00;;;;5053403;28;20177;-65
2021/03/08 06:29:39;;;;;;;12.02;9.52;;;4.30;90.90;11.80;99623.00;;;;5052517;28;20192;-65
2021/03/08 06:32:05;;;;;;;13.85;9.57;;;4.40;91.00;11.60;99625.00;;;;5069880;28;20221;-67
2021/03/08 06:34:32;;;;;;;14.05;10.43;;;4.30;90.90;11.60;99637.00;;;;5053265;28;20215;-66
2021/03/08 06:37:09;;;;;;;16.40;10.82;;;4.30;90.90;11.60;99631.00;;;;5036675;28;20173;-66
2021/03/08 06:39:38;;;;;;;13.10;9.65;;;4.30;90.90;11.50;99628.00;;;;5052727;28;20201;-66
2021/03/08 06:42:05;;;;;;;13.85;9.50;;;4.30;90.90;11.50;99641.00;;;;5053590;28;20209;-67
2021/03/08 06:44:31;;;;;;;13.18;9.80;;;4.30;90.90;11.50;99632.00;;;;5069133;28;20182;-66
2021/03/08 06:46:58;;;;;;;12.40;9.93;;;4.30;90.90;11.50;99626.00;;;;5036429;28;20177;-67
2021/03/08 06:49:24;;;;;;;15.30;11.07;;;4.30;90.90;11.50;99624.00;;;;5052748;28;20398;-67
2021/03/08 06:52:09;;;;;;;14.13;9.40;;;4.30;90.90;11.70;99633.00;;;;5035824;28;20197;-67
2021/03/08 06:54:44;;;;;;;11.80;9.05;;;4.30;90.90;11.60;99624.00;;;;5068885;28;21015;-66
2021/03/08 06:57:25;;;;;;;10.20;8.52;;;4.30;90.90;11.70;99654.00;;;;5053483;28;20643;-66
2021/03/08 06:59:58;;;;;;;13.10;9.52;;;4.30;90.90;11.60;99658.00;;;;5069957;28;20201;-66
2021/03/08 07:02:35;;;;;;;11.45;8.60;;;4.30;91.00;11.40;99651.00;;;;5070878;28;20223;-66
2021/03/08 07:05:00;;;;;;;12.15;9.30;;;4.30;90.90;11.60;99662.00;;;;5053158;28;20201;-66
2021/03/08 07:07:26;;;;;;;10.30;8.27;;;4.30;91.00;11.50;99650.00;;;;5053018;28;20177;-66
2021/03/08 07:09:53;;;;;;;11.13;8.03;;;4.30;90.90;11.40;99665.00;;;;5069129;28;20262;-66
2021/03/08 07:12:20;;;;;;;13.20;9.60;;;4.30;91.00;11.50;99677.00;;;;5069036;28;20177;-66
2021/03/08 07:14:46;;;;;;;10.70;8.70;;;4.30;91.00;11.60;99635.00;;;;5035380;28;20761;-66
2021/03/08 07:17:40;;;;;;;12.38;8.75;;;4.30;91.00;11.60;99666.00;;;;5032870;28;20279;-67
2021/03/08 07:20:09;;;;;;;10.48;8.98;;;4.30;91.00;11.50;99669.00;;;;5062960;28;20219;-67
2021/03/08 07:22:48;;;;;;;13.15;9.40;;;4.30;91.00;11.40;99676.00;;;;5051539;28;20630;-65
2021/03/08 07:25:32;;;;;;;11.23;8.57;;;4.30;91.00;11.50;99672.00;;;;5049019;28;20660;-66
2021/03/08 07:28:00;;;;;;;10.50;7.65;;;4.30;91.00;11.60;99677.00;;;;5031517;28;20201;-66
2021/03/08 07:30:28;;;;;;;12.55;8.52;;;4.30;91.00;11.50;99675.00;;;;5047438;28;20209;-66
2021/03/08 07:33:00;;;;;;;12.30;8.65;;;4.30;91.00;11.50;99685.00;;;;5048214;28;20230;-65
2021/03/08 07:35:58;;;;;;;9.15;7.35;;;4.30;91.00;11.50;99690.00;;;;5046177;28;20577;-67
2021/03/08 07:38:35;;;;;;;12.30;9.57;;;4.30;91.00;11.50;99682.00;;;;4999264;28;20190;-66
2021/03/08 07:41:11;;;;;;;12.80;9.23;;;4.30;91.00;11.60;99675.00;;;;5030892;28;20609;-66
2021/03/08 07:43:42;;;;;;;11.60;8.30;;;4.30;91.00;11.40;99682.00;;;;5048126;28;20286;-65
2021/03/08 07:46:34;;;;;;;11.73;8.15;;;4.30;91.00;11.60;99688.00;;;;5048037;28;20224;-65
2021/03/08 07:49:02;;;;;;;12.45;8.68;;;4.30;91.10;11.60;99684.00;;;;5047961;28;20247;-66
2021/03/08 07:51:28;;;;;;;12.80;8.93;;;4.30;91.10;11.40;99685.00;;;;5047507;28;20202;-66
2021/03/08 07:54:05;;;;;;;10.80;8.27;;;4.30;91.10;11.50;99686.00;;;;5048200;28;20190;-66
2021/03/08 07:56:31;;;;;;;10.57;8.70;;;4.30;91.10;11.60;99686.00;;;;5030451;28;20296;-66
2021/03/08 07:58:57;;;;;;;13.07;9.30;;;4.30;91.10;11.60;99705.00;;;;5031804;28;20186;-66
2021/03/08 08:01:23;;;;;;;12.10;8.50;;;4.30;91.10;11.70;99704.00;;;;5047348;28;20202;-66
2021/03/08 08:03:49;;;;;;;11.07;8.80;;;4.30;91.10;11.50;99693.00;;;;5049232;28;20460;-66
2021/03/08 08:06:24;;;;;;;12.77;8.73;;;4.30;91.10;11.60;99680.00;;;;5029012;28;20619;-65
2021/03/08 08:08:56;;;;;;;11.98;8.40;;;4.30;91.10;11.60;99693.00;;;;5031897;28;20519;-66
2021/03/08 08:11:26;;;;;;;10.15;8.70;;;4.30;91.10;11.70;99686.00;;;;5048982;28;20737;-66
2021/03/08 08:14:00;;;;;;;11.48;7.80;;;4.30;91.50;11.70;99682.00;;;;5066186;28;20185;-66
2021/03/08 08:16:33;;;;;;;9.85;7.68;;;4.30;91.10;11.70;99652.00;;;;5050708;28;20221;-66
2021/03/08 08:19:04;;;;;;;11.43;8.77;;;4.30;91.10;11.60;99700.00;;;;5053790;28;20268;-66
2021/03/08 08:21:35;;;;;;;8.90;7.30;;;4.40;91.10;11.80;99692.00;;;;5070949;28;20205;-66
2021/03/08 08:24:03;;;;;;;10.73;8.57;;;4.40;91.20;11.80;99697.00;;;;5039129;28;20181;-65
2021/03/08 08:26:29;;;;;;;9.77;7.25;;;4.40;91.10;11.60;99693.00;;;;5055440;28;20592;-66
2021/03/08 08:28:55;;;;;;;11.17;8.23;;;4.40;91.20;11.70;99696.00;;;;5039348;28;20271;-66
2021/03/08 08:31:21;;;;;;;10.50;7.30;;;4.40;91.20;11.50;99691.00;;;;5054642;28;20245;-65
2021/03/08 08:33:47;;;;;;;8.40;6.72;;;4.30;91.10;11.70;99693.00;;;;5039618;28;20651;-65
2021/03/08 08:36:25;;;;;;;11.60;7.37;;;4.40;91.20;11.50;99695.00;;;;5055445;28;20226;-66
2021/03/08 08:38:54;;;;;;;10.13;7.75;;;4.40;91.20;11.80;99696.00;;;;5073976;28;20650;-65
2021/03/08 08:41:29;;;;;;;10.65;7.70;;;4.30;91.10;11.70;99695.00;;;;5073292;28;20423;-65
2021/03/08 08:44:07;;;;;;;11.48;8.10;;;4.40;91.20;11.70;99709.00;;;;5054262;28;20629;-65
2021/03/08 08:46:37;;;;;;;9.95;7.90;;;4.40;91.20;11.70;99709.00;;;;5073032;28;20697;-65
2021/03/08 08:49:12;;;;;;;9.60;7.03;;;4.40;91.20;11.80;99712.00;;;;5055808;28;20188;-66
2021/03/08 08:51:53;;;;;;;10.02;6.75;;;4.40;91.60;11.80;99717.00;;;;5055879;28;20239;-65
2021/03/08 08:54:27;;;;;;;11.93;7.80;;;4.40;91.20;11.70;99723.00;;;;5073474;28;20181;-66
2021/03/08 08:56:57;;;;;;;9.98;7.53;;;4.40;91.20;11.50;99709.00;;;;5072678;28;20251;-65
2021/03/08 08:59:23;;;;;;;9.63;7.65;;;4.40;91.20;11.50;99713.00;;;;5055552;28;20181;-65
2021/03/08 09:01:49;;;;;;;10.27;7.45;;;4.40;91.20;11.70;99719.00;;;;5037452;28;20213;-65
2021/03/08 09:04:16;;;;;;;9.57;6.93;;;4.30;91.20;11.80;99692.00;;;;5055138;28;20186;-66
2021/03/08 09:06:59;;;;;;;9.07;6.63;;;4.40;91.20;11.90;99708.00;;;;5071117;28;20284;-65
2021/03/08 09:09:31;;;;;;;9.85;6.85;;;4.40;91.20;11.70;99712.00;;;;5055607;28;20193;-66
2021/03/08 09:11:58;;;;;;;9.23;6.53;;;4.40;91.20;11.70;99715.00;;;;5072137;28;20211;-66
2021/03/08 09:14:36;;;;;;;10.10;6.90;;;4.40;91.20;11.90;99712.00;;;;5055011;28;20272;-66
2021/03/08 09:17:30;;;;;;;9.88;7.30;;;4.40;91.20;11.80;99719.00;;;;5054476;28;20181;-66
2021/03/08 09:19:56;;;;;;;11.07;6.93;;;4.40;91.20;11.60;99716.00;;;;5061734;28;20212;-66
2021/03/08 09:22:22;;;;;;;10.53;7.10;;;4.40;91.20;11.80;99721.00;;;;5056611;28;20213;-66
2021/03/08 09:24:55;;;;;;;10.57;7.17;;;4.40;91.20;11.60;99725.00;;;;5053550;28;20208;-66
2021/03/08 09:27:24;;;;;;;9.52;6.85;;;4.40;91.20;11.60;99729.00;;;;5053785;28;20414;-66
2021/03/08 09:29:50;;;;;;;10.10;6.80;;;4.40;91.20;11.80;99716.00;;;;5071052;28;20239;-66
2021/03/08 09:32:17;;;;;;;12.32;6.78;;;4.40;91.60;11.70;99725.00;;;;5053458;28;20231;-66
2021/03/08 09:34:42;;;;;;;10.20;7.28;;;4.40;91.20;11.70;99728.00;;;;5053166;28;20546;-66
2021/03/08 09:37:08;;;;;;;9.50;6.63;;;4.40;91.20;11.70;99732.00;;;;5066469;28;20274;-66
2021/03/08 09:39:53;;;;;;;10.67;7.00;;;4.40;91.20;11.70;99739.00;;;;5049785;28;20182;-66
2021/03/08 09:42:19;;;;;;;9.90;7.18;;;4.40;91.20;11.60;99730.00;;;;5051352;28;20714;-66
2021/03/08 09:44:46;;;;;;;8.50;6.68;;;4.40;91.20;11.70;99724.00;;;;5050322;28;20186;-65
2021/03/08 09:47:12;;;;;;;9.27;6.55;;;4.40;91.20;11.80;99729.00;;;;5033039;28;20209;-66
2021/03/08 09:49:55;;;;;;;8.47;6.30;;;4.40;91.20;11.90;99738.00;;;;5049820;28;20657;-66
2021/03/08 09:52:39;;;;;;;9.25;6.15;;;4.40;91.20;11.90;99734.00;;;;5050163;28;20182;-66
2021/03/08 09:55:07;;;;;;;8.20;5.85;;;4.40;91.30;11.60;99738.00;;;;5033664;28;20206;-66
2021/03/08 09:57:39;;;;;;;10.75;6.15;;;4.40;91.20;11.70;99735.00;;;;5016237;28;20178;-66
2021/03/08 10:00:14;;;;;;;7.18;5.63;;;4.40;91.30;11.90;99737.00;;;;5049945;28;20676;-66
2021/03/08 10:02:40;;;;;;;8.07;5.90;;;4.40;91.30;11.70;99740.00;;;;5049646;28;20213;-66
2021/03/08 10:05:08;;;;;;;9.30;6.80;;;4.40;91.30;11.90;99752.00;;;;5032697;28;20208;-65
2021/03/08 10:07:34;;;;;;;7.75;6.00;;;4.50;91.30;11.90;99748.00;;;;5049085;28;20448;-66
2021/03/08 10:10:15;;;;;;;9.33;6.40;;;4.40;91.30;12.00;99749.00;;;;5050592;28;20220;-66
2021/03/08 10:12:41;;;;;;;10.07;6.10;;;4.40;91.30;11.90;99746.00;;;;5050836;28;20290;-66
2021/03/08 10:15:09;;;;;;;8.07;5.60;;;4.50;91.30;11.90;99750.00;;;;5065817;28;20832;-66
2021/03/08 10:17:35;;;;;;;8.45;6.03;;;4.40;91.30;11.90;99748.00;;;;5036547;28;20268;-66
2021/03/08 10:20:04;;;;;;;9.77;6.50;;;4.50;91.30;11.90;99744.00;;;;5052256;28;20718;-65
2021/03/08 10:22:39;;;;;;;7.32;5.75;;;4.50;91.30;12.00;99745.00;;;;5052644;28;20773;-66
2021/03/08 10:25:37;;;;;;;8.80;5.80;;;4.50;91.30;11.80;99756.00;;;;5086504;28;20296;-66
2021/03/08 10:28:04;;;;;;;9.50;6.10;;;4.50;91.30;11.90;99751.00;;;;5035523;28;20193;-65
2021/03/08 10:30:33;;;;;;;8.73;6.18;;;4.50;91.30;11.90;99760.00;;;;5052378;28;20212;-66
2021/03/08 10:33:02;;;;;;;8.23;6.00;;;4.50;91.30;11.90;99764.00;;;;5070532;28;20221;-66
2021/03/08 10:35:31;;;;;;;7.22;5.25;;;4.50;91.30;11.80;99762.00;;;;5053356;28;20204;-66
2021/03/08 10:37:57;;;;;;;8.30;6.15;;;4.50;91.30;11.80;99760.00;;;;5053228;28;20710;-66
2021/03/08 10:40:23;;;;;;;8.68;6.00;;;4.50;91.30;11.90;99753.00;;;;5053384;28;20568;-66
2021/03/08 10:42:49;;;;;;;8.07;5.80;;;4.50;91.30;11.80;99755.00;;;;5052156;28;20558;-66
2021/03/08 10:45:15;;;;;;;9.30;5.60;;;4.50;91.30;11.90;99763.00;;;;5069472;28;20201;-66
2021/03/08 10:47:40;;;;;;;7.43;5.57;;;4.50;91.30;11.90;99754.00;;;;5069528;28;20666;-67
2021/03/08 10:50:07;;;;;;;8.47;6.00;;;4.50;91.30;11.80;99766.00;;;;5036220;28;20960;-66
2021/03/08 10:52:32;;;;;;;9.30;6.65;;;4.50;91.40;12.00;99761.00;;;;5053135;28;20192;-66
2021/03/08 10:54:58;;;;;;;9.03;6.33;;;4.50;91.40;11.90;99767.00;;;;5053114;28;20589;-66
2021/03/08 10:57:25;;;;;;;9.00;6.33;;;4.50;91.70;11.80;99759.00;;;;5051760;28;20413;-66
2021/03/08 10:59:55;;;;;;;7.78;5.82;;;4.50;91.40;12.00;99756.00;;;;5053241;28;20862;-66
2021/03/08 11:02:22;;;;;;;11.38;7.20;;;4.50;91.40;12.10;99774.00;;;;5069027;28;20288;-66
2021/03/08 11:04:51;;;;;;;9.73;5.85;;;4.50;91.40;11.80;99768.00;;;;5036464;28;20280;-66
2021/03/08 11:07:32;;;;;;;9.15;5.70;;;4.50;91.40;11.90;99760.00;;;;5052735;28;20193;-66
2021/03/08 11:09:58;;;;;;;8.18;6.20;;;4.50;91.40;11.90;99767.00;;;;5044068;28;20680;-66
2021/03/08 11:12:24;;;;;;;8.87;6.60;;;4.50;91.40;11.90;99767.00;;;;5065710;28;20196;-66